Time;durP1;ratioP1;P1;durP2;ratioP2;P2;SDS_P1;SDS_P2;PMS_P1;PMS_P2;Temp;Humidity;BMP_temperature;BMP_pressure;BME280_temperature;BME280_humidity;BME280_pressure;Samples;Min_cycle;Max_cycle;Signal;HPM_P1;HPM_P2
2021/12/30 14:51:18;;;;;;;1.57;1.20;;;;;;;;;;5066740;23;20260;-86
2021/12/30 14:53:45;;;;;;;1.40;1.30;;;;;;;;;;5046210;28;20221;-85
2021/12/30 14:56:12;;;;;;;2.93;1.70;;;;;;;;;;5051626;28;20217;-85
2021/12/30 14:58:39;;;;;;;1.73;1.63;;;;;;;;;;5050530;28;20252;-85
2021/12/30 15:01:11;;;;;;;1.63;1.53;;;;;;;;;;5051354;28;20237;-85
2021/12/30 15:03:38;;;;;;;1.40;1.30;;;;;;;;;;5050545;28;20241;-85
2021/12/30 15:06:05;;;;;;;2.60;1.80;;;;;;;;;;5051369;28;20206;-85
2021/12/30 15:08:34;;;;;;;1.33;1.20;;;;;;;;;;5051176;28;20234;-85
2021/12/30 15:11:01;;;;;;;1.37;1.27;;;;;;;;;;5051491;28;20693;-85
2021/12/30 15:13:28;;;;;;;1.83;1.67;;;;;;;;;;5050912;28;20597;-85
2021/12/30 15:15:55;;;;;;;1.50;1.30;;;;;;;;;;5051873;28;20206;-85
2021/12/30 15:18:22;;;;;;;1.70;1.30;;;;;;;;;;5052880;28;20241;-85
2021/12/30 15:20:49;;;;;;;1.50;1.40;;;;;;;;;;5048041;28;20225;-86
2021/12/30 15:23:17;;;;;;;2.37;1.47;;;;;;;;;;5039476;28;20258;-87
2021/12/30 15:25:46;;;;;;;1.50;1.40;;;;;;;;;;5014679;28;20207;-86
2021/12/30 15:28:14;;;;;;;1.43;1.33;;;;;;;;;;5012012;28;20660;-85
2021/12/30 15:30:41;;;;;;;3.43;1.40;;;;;;;;;;5018972;28;20230;-86
2021/12/30 15:33:08;;;;;;;2.83;1.87;;;;;;;;;;5019415;28;20238;-85
2021/12/30 15:35:37;;;;;;;1.83;1.50;;;;;;;;;;5025494;28;20207;-85
2021/12/30 15:38:05;;;;;;;1.70;1.60;;;;;;;;;;5031781;28;20203;-86
2021/12/30 15:40:32;;;;;;;2.77;2.00;;;;;;;;;;5022609;28;20227;-86
2021/12/30 15:43:02;;;;;;;1.83;1.73;;;;;;;;;;5011125;28;20230;-86
2021/12/30 15:45:29;;;;;;;1.53;1.50;;;;;;;;;;5011589;28;20273;-85
2021/12/30 15:47:56;;;;;;;1.27;1.17;;;;;;;;;;5026475;28;20222;-86
2021/12/30 15:50:24;;;;;;;1.80;1.60;;;;;;;;;;5025347;28;20239;-86
2021/12/30 15:52:54;;;;;;;1.90;1.53;;;;;;;;;;5014605;28;20215;-87
2021/12/30 15:55:22;;;;;;;1.80;1.70;;;;;;;;;;5022207;28;20213;-86
2021/12/30 15:57:49;;;;;;;2.23;1.60;;;;;;;;;;5034531;28;20206;-86
2021/12/30 16:00:19;;;;;;;2.87;1.80;;;;;;;;;;5035833;28;20230;-85
2021/12/30 16:02:47;;;;;;;3.83;1.60;;;;;;;;;;5033995;28;20262;-86
2021/12/30 16:05:14;;;;;;;2.93;1.60;;;;;;;;;;5034704;28;20202;-86
2021/12/30 16:07:41;;;;;;;1.83;1.63;;;;;;;;;;5034988;28;20210;-86
2021/12/30 16:10:09;;;;;;;2.13;1.33;;;;;;;;;;5033631;28;20249;-85
2021/12/30 16:12:36;;;;;;;2.37;1.60;;;;;;;;;;5034471;28;20268;-84
2021/12/30 16:15:04;;;;;;;1.90;1.80;;;;;;;;;;5037858;28;20235;-84
2021/12/30 16:17:33;;;;;;;2.60;1.70;;;;;;;;;;5039925;28;20225;-83
2021/12/30 16:20:00;;;;;;;1.70;1.60;;;;;;;;;;5038770;28;20242;-83
2021/12/30 16:22:27;;;;;;;2.23;1.83;;;;;;;;;;5038862;28;20223;-83
2021/12/30 16:24:54;;;;;;;1.80;1.60;;;;;;;;;;5039006;28;20234;-83
2021/12/30 16:27:21;;;;;;;1.57;1.47;;;;;;;;;;5031466;28;20226;-83
2021/12/30 16:29:48;;;;;;;2.57;1.73;;;;;;;;;;5020057;28;20235;-83
2021/12/30 16:32:15;;;;;;;11.00;1.57;;;;;;;;;;5033663;28;20211;-83
2021/12/30 16:34:43;;;;;;;2.20;1.80;;;;;;;;;;5019240;28;20246;-83
2021/12/30 16:37:10;;;;;;;3.10;2.23;;;;;;;;;;5020012;28;20211;-83
2021/12/30 16:39:37;;;;;;;2.20;1.67;;;;;;;;;;5020318;28;20239;-83
2021/12/30 16:42:05;;;;;;;2.07;1.57;;;;;;;;;;5024694;28;20226;-83
2021/12/30 16:44:32;;;;;;;1.70;1.60;;;;;;;;;;5033877;28;20606;-83
2021/12/30 16:47:03;;;;;;;2.67;1.47;;;;;;;;;;5038858;28;20241;-83
2021/12/30 16:49:30;;;;;;;2.93;1.73;;;;;;;;;;5020717;28;20242;-83
2021/12/30 16:51:58;;;;;;;2.23;1.70;;;;;;;;;;5037679;28;20214;-83
2021/12/30 16:54:26;;;;;;;3.83;1.73;;;;;;;;;;5019369;28;20239;-84
2021/12/30 16:56:53;;;;;;;1.77;1.67;;;;;;;;;;5020889;28;20605;-83
2021/12/30 16:59:21;;;;;;;5.33;3.40;;;;;;;;;;5027505;28;20235;-83
2021/12/30 17:01:48;;;;;;;3.77;1.90;;;;;;;;;;5041317;28;20215;-83
2021/12/30 17:04:15;;;;;;;3.60;1.77;;;;;;;;;;5024451;28;20239;-84
2021/12/30 17:06:43;;;;;;;5.23;3.20;;;;;;;;;;5019568;28;20208;-83
2021/12/30 17:09:11;;;;;;;1.97;1.87;;;;;;;;;;5017767;28;20722;-84
2021/12/30 17:11:39;;;;;;;2.00;1.80;;;;;;;;;;5024170;28;20198;-85
2021/12/30 17:14:06;;;;;;;1.53;1.43;;;;;;;;;;5029990;28;20258;-84
2021/12/30 17:16:33;;;;;;;1.60;1.50;;;;;;;;;;5034891;28;20210;-84
2021/12/30 17:19:00;;;;;;;2.00;1.50;;;;;;;;;;5035039;28;20284;-84
2021/12/30 17:21:28;;;;;;;1.27;1.07;;;;;;;;;;5016623;28;20214;-85
2021/12/30 17:23:55;;;;;;;2.40;1.60;;;;;;;;;;5014396;28;20243;-86
2021/12/30 17:26:24;;;;;;;1.53;1.43;;;;;;;;;;5013048;28;20211;-85
2021/12/30 17:28:51;;;;;;;1.07;1.07;;;;;;;;;;5012408;28;20231;-85
2021/12/30 17:31:20;;;;;;;2.67;1.50;;;;;;;;;;5013051;28;20227;-84
2021/12/30 17:33:47;;;;;;;3.47;1.67;;;;;;;;;;5031560;28;20235;-84
2021/12/30 17:36:14;;;;;;;1.47;1.30;;;;;;;;;;5027387;28;20207;-85
2021/12/30 17:38:42;;;;;;;3.37;1.50;;;;;;;;;;5015660;28;20250;-84
2021/12/30 17:41:09;;;;;;;1.77;1.37;;;;;;;;;;5021630;28;20249;-84
2021/12/30 17:43:38;;;;;;;1.80;1.30;;;;;;;;;;5025556;28;20242;-83
2021/12/30 17:46:05;;;;;;;1.50;1.40;;;;;;;;;;5025094;28;20577;-84
2021/12/30 17:48:33;;;;;;;2.50;1.60;;;;;;;;;;5020450;28;20235;-83
2021/12/30 17:51:02;;;;;;;2.90;1.60;;;;;;;;;;5020389;28;20234;-83
2021/12/30 17:53:31;;;;;;;2.60;1.60;;;;;;;;;;5032961;28;20261;-84
2021/12/30 17:55:59;;;;;;;1.43;1.33;;;;;;;;;;5034239;28;20214;-83
2021/12/30 17:58:26;;;;;;;1.70;1.57;;;;;;;;;;5033456;28;20756;-83
2021/12/30 18:00:55;;;;;;;3.10;1.27;;;;;;;;;;5022660;28;20273;-83
2021/12/30 18:03:22;;;;;;;2.17;1.33;;;;;;;;;;5013820;28;20338;-83
2021/12/30 18:05:49;;;;;;;1.50;1.33;;;;;;;;;;5015265;28;20959;-83
2021/12/30 18:08:17;;;;;;;2.07;1.80;;;;;;;;;;5015990;28;20230;-82
2021/12/30 18:10:44;;;;;;;1.60;1.43;;;;;;;;;;5026496;28;20257;-83
2021/12/30 18:13:11;;;;;;;3.73;1.73;;;;;;;;;;5034286;28;20258;-82
2021/12/30 18:15:39;;;;;;;1.60;1.50;;;;;;;;;;5018200;28;20211;-83
2021/12/30 18:18:08;;;;;;;1.50;1.40;;;;;;;;;;5016877;28;20246;-81
2021/12/30 18:20:36;;;;;;;3.70;1.67;;;;;;;;;;5026095;28;20650;-84
2021/12/30 18:23:03;;;;;;;2.43;1.67;;;;;;;;;;5039201;28;20211;-85
2021/12/30 18:25:31;;;;;;;4.10;2.40;;;;;;;;;;5031818;28;20202;-86
2021/12/30 18:27:58;;;;;;;4.47;1.70;;;;;;;;;;5031324;28;20288;-84
2021/12/30 18:30:25;;;;;;;2.97;1.80;;;;;;;;;;5031241;28;20234;-85
2021/12/30 18:32:52;;;;;;;2.43;1.30;;;;;;;;;;5030398;28;20206;-85
2021/12/30 18:35:21;;;;;;;3.43;2.27;;;;;;;;;;5034530;28;20206;-84
2021/12/30 18:37:49;;;;;;;2.20;1.83;;;;;;;;;;5031872;28;20890;-84
2021/12/30 18:40:16;;;;;;;3.70;1.90;;;;;;;;;;5013958;28;20715;-85
2021/12/30 18:42:44;;;;;;;2.40;1.80;;;;;;;;;;5012322;28;20187;-84
2021/12/30 18:45:11;;;;;;;2.13;1.80;;;;;;;;;;5011447;28;20235;-86
2021/12/30 18:47:38;;;;;;;4.07;2.10;;;;;;;;;;5012996;28;20905;-85
2021/12/30 18:50:07;;;;;;;2.20;2.00;;;;;;;;;;5023041;28;20235;-83
2021/12/30 18:52:40;;;;;;;4.10;2.10;;;;;;;;;;5033953;28;20206;-82
2021/12/30 18:55:08;;;;;;;3.20;2.40;;;;;;;;;;5048771;28;20242;-83
2021/12/30 18:57:35;;;;;;;5.23;2.70;;;;;;;;;;5037516;28;20214;-82
2021/12/30 19:00:02;;;;;;;2.13;2.00;;;;;;;;;;5029942;28;20242;-83
2021/12/30 19:02:29;;;;;;;4.57;2.37;;;;;;;;;;5016862;28;20207;-84
2021/12/30 19:04:56;;;;;;;2.03;1.90;;;;;;;;;;5017372;28;20250;-83
2021/12/30 19:07:24;;;;;;;2.20;2.00;;;;;;;;;;5017495;28;20295;-84
2021/12/30 19:09:54;;;;;;;2.50;2.30;;;;;;;;;;5016874;28;20235;-82
2021/12/30 19:12:21;;;;;;;2.20;2.00;;;;;;;;;;5016041;28;20663;-84
2021/12/30 19:14:49;;;;;;;1.53;1.43;;;;;;;;;;5016085;28;20318;-83
2021/12/30 19:17:16;;;;;;;2.77;2.20;;;;;;;;;;5016723;28;20211;-84
2021/12/30 19:19:43;;;;;;;3.93;2.10;;;;;;;;;;5024872;28;20238;-83
2021/12/30 19:22:10;;;;;;;4.87;2.10;;;;;;;;;;5034268;28;20207;-83
2021/12/30 19:24:40;;;;;;;3.30;2.30;;;;;;;;;;5024179;28;20234;-83
2021/12/30 19:27:09;;;;;;;2.20;1.80;;;;;;;;;;5019355;28;20231;-83
2021/12/30 19:29:36;;;;;;;2.27;2.00;;;;;;;;;;5037569;28;20617;-84
2021/12/30 19:32:03;;;;;;;2.13;1.93;;;;;;;;;;5038414;28;20578;-84
2021/12/30 19:34:30;;;;;;;1.90;1.80;;;;;;;;;;5038059;28;20256;-85
2021/12/30 19:36:57;;;;;;;3.80;1.50;;;;;;;;;;5039955;28;20214;-83
2021/12/30 19:39:24;;;;;;;2.73;2.00;;;;;;;;;;5040361;28;20292;-83
2021/12/30 19:41:51;;;;;;;3.57;1.53;;;;;;;;;;5040330;28;20207;-83
2021/12/30 19:44:19;;;;;;;2.50;1.80;;;;;;;;;;5032429;28;20246;-84
2021/12/30 19:46:47;;;;;;;1.83;1.70;;;;;;;;;;5020081;28;20334;-84
2021/12/30 19:49:15;;;;;;;2.07;1.60;;;;;;;;;;5020029;28;20250;-83
2021/12/30 19:51:42;;;;;;;2.33;1.97;;;;;;;;;;5018966;28;20249;-83
2021/12/30 19:54:10;;;;;;;2.27;1.70;;;;;;;;;;5030477;28;20699;-83
2021/12/30 19:56:38;;;;;;;1.87;1.70;;;;;;;;;;5044287;28;20210;-84
2021/12/30 19:59:05;;;;;;;1.43;1.33;;;;;;;;;;5042708;28;20245;-84
2021/12/30 20:01:34;;;;;;;3.30;2.80;;;;;;;;;;5042020;28;20206;-83
2021/12/30 20:04:01;;;;;;;1.97;1.73;;;;;;;;;;5041611;28;20300;-83
2021/12/30 20:06:29;;;;;;;1.73;1.63;;;;;;;;;;5041771;28;20237;-83
2021/12/30 20:08:56;;;;;;;2.37;2.10;;;;;;;;;;5040664;28;20250;-83
2021/12/30 20:11:23;;;;;;;2.33;2.10;;;;;;;;;;5042013;28;20207;-85
2021/12/30 20:13:50;;;;;;;6.13;3.30;;;;;;;;;;5039449;28;20227;-83
2021/12/30 20:16:17;;;;;;;4.90;1.40;;;;;;;;;;5053754;28;20206;-84
2021/12/30 20:18:46;;;;;;;2.60;2.00;;;;;;;;;;5062229;28;20226;-83
2021/12/30 20:21:15;;;;;;;2.77;1.90;;;;;;;;;;5055699;28;20222;-83
2021/12/30 20:23:42;;;;;;;1.83;1.57;;;;;;;;;;5055989;28;20237;-83
2021/12/30 20:26:09;;;;;;;3.20;1.83;;;;;;;;;;5060927;28;20206;-83
2021/12/30 20:28:37;;;;;;;4.07;2.27;;;;;;;;;;5061388;28;20237;-83
2021/12/30 20:31:05;;;;;;;2.23;1.97;;;;;;;;;;5060897;28;20230;-83
2021/12/30 20:33:33;;;;;;;2.03;1.87;;;;;;;;;;5049972;28;20655;-84
2021/12/30 20:36:01;;;;;;;3.10;1.90;;;;;;;;;;5041196;28;20237;-84
2021/12/30 20:38:28;;;;;;;2.57;2.37;;;;;;;;;;5059355;28;20230;-84
2021/12/30 20:40:55;;;;;;;2.43;1.97;;;;;;;;;;5060770;28;20237;-84
2021/12/30 20:43:22;;;;;;;1.90;1.80;;;;;;;;;;5058938;28;20236;-84
2021/12/30 20:45:52;;;;;;;3.77;2.00;;;;;;;;;;5060551;28;20202;-84
2021/12/30 20:48:19;;;;;;;2.23;2.13;;;;;;;;;;5061309;28;20610;-84
2021/12/30 20:50:46;;;;;;;4.80;2.53;;;;;;;;;;5083152;22;20234;-80
2021/12/30 20:53:15;;;;;;;5.13;2.37;;;;;;;;;;5035693;28;20241;-81
2021/12/30 20:55:43;;;;;;;2.90;2.00;;;;;;;;;;5033567;28;20218;-79
2021/12/30 20:58:12;;;;;;;1.90;1.80;;;;;;;;;;5032690;28;20729;-79
2021/12/30 21:00:39;;;;;;;2.30;1.90;;;;;;;;;;5032918;28;20227;-80
2021/12/30 21:03:06;;;;;;;2.97;1.97;;;;;;;;;;5032469;28;20202;-78
2021/12/30 21:05:35;;;;;;;3.00;2.10;;;;;;;;;;5032741;28;20226;-79
2021/12/30 21:08:03;;;;;;;2.73;2.20;;;;;;;;;;5032417;28;20297;-79
2021/12/30 21:10:32;;;;;;;2.77;2.13;;;;;;;;;;5032691;28;20317;-79
2021/12/30 21:13:00;;;;;;;2.30;1.80;;;;;;;;;;5032077;28;20210;-79
2021/12/30 21:15:29;;;;;;;2.87;2.27;;;;;;;;;;5032855;28;20701;-79
2021/12/30 21:17:56;;;;;;;3.47;2.40;;;;;;;;;;5032556;28;20217;-79
2021/12/30 21:20:23;;;;;;;4.23;2.40;;;;;;;;;;5032715;28;20230;-79
2021/12/30 21:22:55;;;;;;;2.33;2.10;;;;;;;;;;5032284;28;20231;-79
2021/12/30 21:25:22;;;;;;;4.13;2.77;;;;;;;;;;5032572;28;20308;-79
2021/12/30 21:27:55;;;;;;;2.70;2.50;;;;;;;;;;5032209;28;20215;-79
2021/12/30 21:30:22;;;;;;;3.23;2.60;;;;;;;;;;5032801;28;20370;-79
2021/12/30 21:32:49;;;;;;;3.30;3.00;;;;;;;;;;5031783;28;20276;-79
2021/12/30 21:35:18;;;;;;;3.23;2.53;;;;;;;;;;5032187;28;20685;-78
2021/12/30 21:37:46;;;;;;;4.60;2.83;;;;;;;;;;5032273;28;20608;-78
2021/12/30 21:40:13;;;;;;;4.90;2.70;;;;;;;;;;5032088;28;20227;-78
2021/12/30 21:42:40;;;;;;;3.97;2.70;;;;;;;;;;5032039;28;20209;-78
2021/12/30 21:45:09;;;;;;;4.80;2.80;;;;;;;;;;5031558;28;20245;-78
2021/12/30 21:47:37;;;;;;;4.23;2.40;;;;;;;;;;5031859;28;20289;-78
2021/12/30 21:50:05;;;;;;;6.60;2.60;;;;;;;;;;5031314;28;20605;-79
2021/12/30 21:52:32;;;;;;;4.30;2.70;;;;;;;;;;5032147;28;20264;-79
2021/12/30 21:54:59;;;;;;;4.37;2.63;;;;;;;;;;5031434;28;20237;-79
2021/12/30 21:57:26;;;;;;;2.17;1.97;;;;;;;;;;5031675;28;20272;-79
2021/12/30 21:59:53;;;;;;;3.57;2.20;;;;;;;;;;5031392;28;20702;-78
2021/12/30 22:02:21;;;;;;;4.43;2.50;;;;;;;;;;5031807;28;20202;-78
2021/12/30 22:04:48;;;;;;;6.10;2.50;;;;;;;;;;5031112;28;20242;-78
2021/12/30 22:07:17;;;;;;;6.93;2.70;;;;;;;;;;5032077;28;20206;-78
2021/12/30 22:09:44;;;;;;;5.37;2.50;;;;;;;;;;5016142;28;20243;-80
2021/12/30 22:12:12;;;;;;;4.77;2.70;;;;;;;;;;5014032;28;20697;-80
2021/12/30 22:14:39;;;;;;;2.67;2.27;;;;;;;;;;5012537;28;20238;-80
2021/12/30 22:17:06;;;;;;;2.77;2.30;;;;;;;;;;5014240;28;20679;-80
2021/12/30 22:19:35;;;;;;;1.97;1.77;;;;;;;;;;5013656;28;20231;-80
2021/12/30 22:22:02;;;;;;;3.63;2.20;;;;;;;;;;5013929;28;20216;-80
2021/12/30 22:24:29;;;;;;;2.83;2.33;;;;;;;;;;5013302;28;20674;-80
2021/12/30 22:26:56;;;;;;;3.97;2.50;;;;;;;;;;5014334;28;20207;-80
2021/12/30 22:29:23;;;;;;;2.40;2.03;;;;;;;;;;5013379;28;20246;-81
2021/12/30 22:31:52;;;;;;;4.87;2.30;;;;;;;;;;5014487;28;20718;-81
2021/12/30 22:34:20;;;;;;;4.83;2.77;;;;;;;;;;5014050;28;20238;-81
2021/12/30 22:36:48;;;;;;;2.70;2.47;;;;;;;;;;5014700;28;20246;-80
2021/12/30 22:39:15;;;;;;;3.43;2.23;;;;;;;;;;5021469;28;20333;-80
2021/12/30 22:41:42;;;;;;;4.10;2.60;;;;;;;;;;5034147;28;20728;-80
2021/12/30 22:44:10;;;;;;;4.23;2.47;;;;;;;;;;5032177;28;20676;-79
2021/12/30 22:46:37;;;;;;;4.90;2.33;;;;;;;;;;5031775;28;20207;-78
2021/12/30 22:49:04;;;;;;;4.37;2.70;;;;;;;;;;5030764;28;20653;-79
2021/12/30 22:51:31;;;;;;;3.93;2.53;;;;;;;;;;5030830;28;20721;-78
2021/12/30 22:53:59;;;;;;;4.17;2.40;;;;;;;;;;5031325;28;20234;-81
2021/12/30 22:56:27;;;;;;;2.37;2.13;;;;;;;;;;5031733;28;20302;-78
2021/12/30 22:58:54;;;;;;;3.03;2.60;;;;;;;;;;5030813;28;20238;-79
2021/12/30 23:01:21;;;;;;;3.47;2.57;;;;;;;;;;5034139;28;20280;-78
2021/12/30 23:03:58;;;;;;;4.10;2.70;;;;;;;;;;5034695;28;20718;-78
2021/12/30 23:06:26;;;;;;;2.73;2.37;;;;;;;;;;5035427;28;20241;-78
2021/12/30 23:08:54;;;;;;;2.40;2.13;;;;;;;;;;5034856;28;20238;-78
2021/12/30 23:11:24;;;;;;;3.27;2.20;;;;;;;;;;5035125;28;20232;-78
2021/12/30 23:13:51;;;;;;;3.73;2.27;;;;;;;;;;5034676;28;20249;-78
2021/12/30 23:16:20;;;;;;;2.30;2.10;;;;;;;;;;5035071;28;20202;-79
2021/12/30 23:18:47;;;;;;;2.73;2.27;;;;;;;;;;5034826;28;20234;-79
2021/12/30 23:21:14;;;;;;;3.03;2.17;;;;;;;;;;5035055;28;20238;-78
2021/12/30 23:23:41;;;;;;;2.60;2.00;;;;;;;;;;5034517;28;20285;-78
2021/12/30 23:26:08;;;;;;;5.57;2.50;;;;;;;;;;5035208;28;20277;-78
2021/12/30 23:28:36;;;;;;;2.20;1.80;;;;;;;;;;5034430;28;20234;-78
2021/12/30 23:31:04;;;;;;;2.03;1.83;;;;;;;;;;5034909;28;20222;-78
2021/12/30 23:33:31;;;;;;;2.10;1.73;;;;;;;;;;5034198;28;20254;-78
2021/12/30 23:35:58;;;;;;;2.40;1.90;;;;;;;;;;5034859;28;20215;-78
2021/12/30 23:38:26;;;;;;;2.30;1.97;;;;;;;;;;5034370;28;20230;-79
2021/12/30 23:40:53;;;;;;;2.67;2.10;;;;;;;;;;5035010;28;20321;-78
2021/12/30 23:43:20;;;;;;;3.33;2.27;;;;;;;;;;5034051;28;20241;-79
2021/12/30 23:45:49;;;;;;;6.73;2.10;;;;;;;;;;5034517;28;20326;-79
2021/12/30 23:48:16;;;;;;;3.63;2.33;;;;;;;;;;5034358;28;20280;-78
2021/12/30 23:50:43;;;;;;;2.27;1.93;;;;;;;;;;5034287;28;20300;-78
2021/12/30 23:53:10;;;;;;;3.30;2.13;;;;;;;;;;5034003;28;20230;-78
2021/12/30 23:55:38;;;;;;;3.17;2.43;;;;;;;;;;5034412;28;20203;-78
2021/12/30 23:58:06;;;;;;;2.00;1.80;;;;;;;;;;5033944;28;20242;-79
